sensor_id;sensor_type;location;lat;lon;timestamp;P1;durP1;ratioP1;P2;durP2;ratioP2
61254;SDS011;47128;47.530;8.584;2024-02-16T00:01:43;12.63;;;5.90;;
61254;SDS011;47128;47.530;8.584;2024-02-16T00:07:13;11.25;;;5.65;;
61254;SDS011;47128;47.530;8.584;2024-02-16T00:09:39;10.90;;;5.85;;
61254;SDS011;47128;47.530;8.584;2024-02-16T00:12:05;14.98;;;5.93;;
61254;SDS011;47128;47.530;8.584;2024-02-16T00:14:31;9.73;;;5.30;;
61254;SDS011;47128;47.530;8.584;2024-02-16T00:16:57;12.95;;;6.15;;
61254;SDS011;47128;47.530;8.584;2024-02-16T00:19:24;9.63;;;6.22;;
61254;SDS011;47128;47.530;8.584;2024-02-16T00:21:52;10.05;;;5.53;;
61254;SDS011;47128;47.530;8.584;2024-02-16T00:24:18;8.68;;;6.38;;
61254;SDS011;47128;47.530;8.584;2024-02-16T00:26:44;10.82;;;6.03;;
61254;SDS011;47128;47.530;8.584;2024-02-16T00:29:11;9.88;;;5.85;;
61254;SDS011;47128;47.530;8.584;2024-02-16T00:31:37;8.65;;;5.63;;
61254;SDS011;47128;47.530;8.584;2024-02-16T00:34:04;12.38;;;6.15;;
61254;SDS011;47128;47.530;8.584;2024-02-16T00:36:30;10.27;;;5.95;;
61254;SDS011;47128;47.530;8.584;2024-02-16T00:38:59;11.70;;;6.15;;
61254;SDS011;47128;47.530;8.584;2024-02-16T00:41:26;10.35;;;6.28;;
61254;SDS011;47128;47.530;8.584;2024-02-16T00:43:52;11.75;;;6.55;;
61254;SDS011;47128;47.530;8.584;2024-02-16T00:46:18;8.60;;;5.78;;
61254;SDS011;47128;47.530;8.584;2024-02-16T00:48:47;11.43;;;6.78;;
61254;SDS011;47128;47.530;8.584;2024-02-16T00:51:16;12.23;;;6.75;;
61254;SDS011;47128;47.530;8.584;2024-02-16T00:53:42;9.57;;;6.78;;
61254;SDS011;47128;47.530;8.584;2024-02-16T00:56:08;14.80;;;6.43;;
61254;SDS011;47128;47.530;8.584;2024-02-16T00:58:35;11.00;;;6.88;;
61254;SDS011;47128;47.530;8.584;2024-02-16T01:01:01;14.13;;;6.85;;
61254;SDS011;47128;47.530;8.584;2024-02-16T01:03:28;12.00;;;6.68;;
61254;SDS011;47128;47.530;8.584;2024-02-16T01:05:55;12.00;;;7.10;;
61254;SDS011;47128;47.530;8.584;2024-02-16T01:08:21;13.55;;;6.95;;
61254;SDS011;47128;47.530;8.584;2024-02-16T01:10:48;12.18;;;7.10;;
61254;SDS011;47128;47.530;8.584;2024-02-16T01:13:14;12.55;;;7.63;;
61254;SDS011;47128;47.530;8.584;2024-02-16T01:15:40;11.63;;;7.25;;
61254;SDS011;47128;47.530;8.584;2024-02-16T01:18:06;8.80;;;5.63;;
61254;SDS011;47128;47.530;8.584;2024-02-16T01:20:33;11.65;;;6.43;;
61254;SDS011;47128;47.530;8.584;2024-02-16T01:23:00;11.55;;;5.70;;
61254;SDS011;47128;47.530;8.584;2024-02-16T01:25:26;9.82;;;5.53;;
61254;SDS011;47128;47.530;8.584;2024-02-16T01:27:52;12.32;;;6.80;;
61254;SDS011;47128;47.530;8.584;2024-02-16T01:30:19;9.63;;;6.40;;
61254;SDS011;47128;47.530;8.584;2024-02-16T01:32:46;9.95;;;6.13;;
61254;SDS011;47128;47.530;8.584;2024-02-16T01:35:12;9.68;;;5.85;;
61254;SDS011;47128;47.530;8.584;2024-02-16T01:37:42;8.98;;;4.85;;
61254;SDS011;47128;47.530;8.584;2024-02-16T01:40:09;9.60;;;5.85;;
61254;SDS011;47128;47.530;8.584;2024-02-16T01:42:44;11.15;;;5.85;;
61254;SDS011;47128;47.530;8.584;2024-02-16T01:45:10;11.43;;;5.97;;
61254;SDS011;47128;47.530;8.584;2024-02-16T01:47:41;11.27;;;6.07;;
61254;SDS011;47128;47.530;8.584;2024-02-16T01:50:13;11.00;;;5.90;;
61254;SDS011;47128;47.530;8.584;2024-02-16T01:52:40;9.48;;;5.78;;
61254;SDS011;47128;47.530;8.584;2024-02-16T01:55:06;10.80;;;5.93;;
61254;SDS011;47128;47.530;8.584;2024-02-16T01:57:36;7.65;;;5.25;;
61254;SDS011;47128;47.530;8.584;2024-02-16T02:00:03;10.38;;;5.60;;
61254;SDS011;47128;47.530;8.584;2024-02-16T02:02:30;9.68;;;5.88;;
61254;SDS011;47128;47.530;8.584;2024-02-16T02:04:56;9.43;;;5.85;;
61254;SDS011;47128;47.530;8.584;2024-02-16T02:07:25;12.75;;;6.75;;
61254;SDS011;47128;47.530;8.584;2024-02-16T02:09:52;12.10;;;6.15;;
61254;SDS011;47128;47.530;8.584;2024-02-16T02:12:18;15.20;;;8.10;;
61254;SDS011;47128;47.530;8.584;2024-02-16T02:14:44;15.52;;;8.40;;
61254;SDS011;47128;47.530;8.584;2024-02-16T02:17:11;14.13;;;7.78;;
61254;SDS011;47128;47.530;8.584;2024-02-16T02:19:38;10.52;;;6.57;;
61254;SDS011;47128;47.530;8.584;2024-02-16T02:22:04;12.80;;;6.78;;
61254;SDS011;47128;47.530;8.584;2024-02-16T02:24:31;15.05;;;7.95;;
61254;SDS011;47128;47.530;8.584;2024-02-16T02:26:57;14.27;;;8.32;;
61254;SDS011;47128;47.530;8.584;2024-02-16T02:29:23;11.02;;;5.70;;
61254;SDS011;47128;47.530;8.584;2024-02-16T02:31:49;13.10;;;6.85;;
61254;SDS011;47128;47.530;8.584;2024-02-16T02:34:15;13.73;;;7.03;;
61254;SDS011;47128;47.530;8.584;2024-02-16T02:36:42;13.82;;;8.15;;
61254;SDS011;47128;47.530;8.584;2024-02-16T02:39:09;10.70;;;7.25;;
61254;SDS011;47128;47.530;8.584;2024-02-16T02:41:35;13.18;;;7.07;;
61254;SDS011;47128;47.530;8.584;2024-02-16T02:44:01;11.13;;;6.65;;
61254;SDS011;47128;47.530;8.584;2024-02-16T02:46:27;13.85;;;6.72;;
61254;SDS011;47128;47.530;8.584;2024-02-16T02:48:53;11.55;;;6.50;;
61254;SDS011;47128;47.530;8.584;2024-02-16T02:51:20;13.48;;;7.45;;
61254;SDS011;47128;47.530;8.584;2024-02-16T02:53:46;15.82;;;7.18;;
61254;SDS011;47128;47.530;8.584;2024-02-16T02:56:12;12.55;;;7.10;;
61254;SDS011;47128;47.530;8.584;2024-02-16T02:58:39;12.38;;;7.05;;
61254;SDS011;47128;47.530;8.584;2024-02-16T03:01:05;11.73;;;6.55;;
61254;SDS011;47128;47.530;8.584;2024-02-16T03:03:33;9.43;;;6.35;;
61254;SDS011;47128;47.530;8.584;2024-02-16T03:05:59;10.60;;;5.88;;
61254;SDS011;47128;47.530;8.584;2024-02-16T03:08:25;11.32;;;6.93;;
61254;SDS011;47128;47.530;8.584;2024-02-16T03:10:52;13.07;;;7.78;;
61254;SDS011;47128;47.530;8.584;2024-02-16T03:13:18;13.55;;;7.15;;
61254;SDS011;47128;47.530;8.584;2024-02-16T03:15:45;10.57;;;7.03;;
61254;SDS011;47128;47.530;8.584;2024-02-16T03:18:11;12.18;;;7.43;;
61254;SDS011;47128;47.530;8.584;2024-02-16T03:20:38;15.05;;;6.88;;
61254;SDS011;47128;47.530;8.584;2024-02-16T03:23:04;13.85;;;7.00;;
61254;SDS011;47128;47.530;8.584;2024-02-16T03:25:31;12.65;;;6.25;;
61254;SDS011;47128;47.530;8.584;2024-02-16T03:27:57;12.43;;;6.80;;
61254;SDS011;47128;47.530;8.584;2024-02-16T03:30:23;13.50;;;7.32;;
61254;SDS011;47128;47.530;8.584;2024-02-16T03:32:49;9.35;;;6.60;;
61254;SDS011;47128;47.530;8.584;2024-02-16T03:35:16;11.93;;;6.85;;
61254;SDS011;47128;47.530;8.584;2024-02-16T03:37:43;11.27;;;6.85;;
61254;SDS011;47128;47.530;8.584;2024-02-16T03:40:09;9.65;;;6.45;;
61254;SDS011;47128;47.530;8.584;2024-02-16T03:42:38;15.70;;;7.40;;
61254;SDS011;47128;47.530;8.584;2024-02-16T03:45:07;10.80;;;6.40;;
61254;SDS011;47128;47.530;8.584;2024-02-16T03:47:33;10.88;;;6.82;;
61254;SDS011;47128;47.530;8.584;2024-02-16T03:49:59;12.48;;;7.20;;
61254;SDS011;47128;47.530;8.584;2024-02-16T03:52:26;13.18;;;7.18;;
61254;SDS011;47128;47.530;8.584;2024-02-16T03:54:52;11.77;;;7.10;;
61254;SDS011;47128;47.530;8.584;2024-02-16T03:57:18;10.20;;;6.75;;
61254;SDS011;47128;47.530;8.584;2024-02-16T03:59:45;12.35;;;6.40;;
61254;SDS011;47128;47.530;8.584;2024-02-16T04:02:12;14.43;;;6.97;;
61254;SDS011;47128;47.530;8.584;2024-02-16T04:04:41;12.43;;;6.82;;
61254;SDS011;47128;47.530;8.584;2024-02-16T04:07:07;11.55;;;7.10;;
61254;SDS011;47128;47.530;8.584;2024-02-16T04:09:34;12.50;;;6.97;;
61254;SDS011;47128;47.530;8.584;2024-02-16T04:12:01;15.05;;;7.55;;
61254;SDS011;47128;47.530;8.584;2024-02-16T04:14:28;13.27;;;6.75;;
61254;SDS011;47128;47.530;8.584;2024-02-16T04:16:55;11.40;;;7.15;;
61254;SDS011;47128;47.530;8.584;2024-02-16T04:19:28;13.10;;;7.97;;
61254;SDS011;47128;47.530;8.584;2024-02-16T04:21:54;11.25;;;6.45;;
61254;SDS011;47128;47.530;8.584;2024-02-16T04:24:21;13.00;;;7.45;;
61254;SDS011;47128;47.530;8.584;2024-02-16T04:26:47;15.25;;;7.25;;
61254;SDS011;47128;47.530;8.584;2024-02-16T04:29:13;13.90;;;6.82;;
61254;SDS011;47128;47.530;8.584;2024-02-16T04:31:40;12.20;;;6.93;;
61254;SDS011;47128;47.530;8.584;2024-02-16T04:34:10;13.30;;;7.32;;
61254;SDS011;47128;47.530;8.584;2024-02-16T04:36:37;12.43;;;8.82;;
61254;SDS011;47128;47.530;8.584;2024-02-16T04:39:03;11.60;;;7.95;;
61254;SDS011;47128;47.530;8.584;2024-02-16T04:41:29;13.38;;;8.07;;
61254;SDS011;47128;47.530;8.584;2024-02-16T04:43:55;15.63;;;7.53;;
61254;SDS011;47128;47.530;8.584;2024-02-16T04:46:22;13.63;;;7.43;;
61254;SDS011;47128;47.530;8.584;2024-02-16T04:48:48;12.02;;;7.32;;
61254;SDS011;47128;47.530;8.584;2024-02-16T04:51:14;13.57;;;8.27;;
61254;SDS011;47128;47.530;8.584;2024-02-16T04:53:43;13.20;;;7.97;;
61254;SDS011;47128;47.530;8.584;2024-02-16T04:56:09;13.93;;;8.02;;
61254;SDS011;47128;47.530;8.584;2024-02-16T04:58:39;15.57;;;7.68;;
61254;SDS011;47128;47.530;8.584;2024-02-16T05:01:08;10.27;;;6.30;;
61254;SDS011;47128;47.530;8.584;2024-02-16T05:03:35;13.70;;;7.07;;
61254;SDS011;47128;47.530;8.584;2024-02-16T05:06:02;11.70;;;7.32;;
61254;SDS011;47128;47.530;8.584;2024-02-16T05:08:28;12.40;;;6.93;;
61254;SDS011;47128;47.530;8.584;2024-02-16T05:10:55;13.25;;;7.45;;
61254;SDS011;47128;47.530;8.584;2024-02-16T05:13:21;14.63;;;7.30;;
61254;SDS011;47128;47.530;8.584;2024-02-16T05:15:47;12.52;;;7.15;;
61254;SDS011;47128;47.530;8.584;2024-02-16T05:18:14;12.25;;;6.88;;
61254;SDS011;47128;47.530;8.584;2024-02-16T05:20:40;12.70;;;6.95;;
61254;SDS011;47128;47.530;8.584;2024-02-16T05:23:06;13.23;;;6.68;;
61254;SDS011;47128;47.530;8.584;2024-02-16T05:25:32;10.02;;;6.70;;
61254;SDS011;47128;47.530;8.584;2024-02-16T05:27:59;13.45;;;6.13;;
61254;SDS011;47128;47.530;8.584;2024-02-16T05:30:26;11.90;;;6.45;;
61254;SDS011;47128;47.530;8.584;2024-02-16T05:32:53;8.82;;;6.10;;
61254;SDS011;47128;47.530;8.584;2024-02-16T05:35:23;10.25;;;6.60;;
61254;SDS011;47128;47.530;8.584;2024-02-16T05:37:52;10.80;;;7.13;;
61254;SDS011;47128;47.530;8.584;2024-02-16T05:40:20;10.15;;;6.70;;
61254;SDS011;47128;47.530;8.584;2024-02-16T05:42:49;11.05;;;6.13;;
61254;SDS011;47128;47.530;8.584;2024-02-16T05:45:15;9.73;;;6.82;;
61254;SDS011;47128;47.530;8.584;2024-02-16T05:47:41;11.25;;;7.13;;
61254;SDS011;47128;47.530;8.584;2024-02-16T05:50:08;12.02;;;6.95;;
61254;SDS011;47128;47.530;8.584;2024-02-16T05:52:35;12.45;;;6.22;;
61254;SDS011;47128;47.530;8.584;2024-02-16T05:55:05;9.50;;;6.07;;
61254;SDS011;47128;47.530;8.584;2024-02-16T05:57:31;13.00;;;6.22;;
61254;SDS011;47128;47.530;8.584;2024-02-16T05:59:58;10.32;;;6.68;;
61254;SDS011;47128;47.530;8.584;2024-02-16T06:02:24;14.23;;;6.85;;
61254;SDS011;47128;47.530;8.584;2024-02-16T06:04:51;12.57;;;7.55;;
61254;SDS011;47128;47.530;8.584;2024-02-16T06:07:17;12.93;;;6.85;;
61254;SDS011;47128;47.530;8.584;2024-02-16T06:09:44;9.60;;;6.38;;
61254;SDS011;47128;47.530;8.584;2024-02-16T06:12:10;9.93;;;6.75;;
61254;SDS011;47128;47.530;8.584;2024-02-16T06:14:38;11.32;;;6.78;;
61254;SDS011;47128;47.530;8.584;2024-02-16T06:17:04;11.05;;;6.60;;
61254;SDS011;47128;47.530;8.584;2024-02-16T06:19:30;10.68;;;6.38;;
61254;SDS011;47128;47.530;8.584;2024-02-16T06:21:57;10.48;;;6.28;;
61254;SDS011;47128;47.530;8.584;2024-02-16T06:24:24;12.00;;;6.30;;
61254;SDS011;47128;47.530;8.584;2024-02-16T06:26:50;16.75;;;7.07;;
61254;SDS011;47128;47.530;8.584;2024-02-16T06:29:19;10.40;;;6.72;;
61254;SDS011;47128;47.530;8.584;2024-02-16T06:31:46;12.13;;;7.55;;
61254;SDS011;47128;47.530;8.584;2024-02-16T06:34:15;10.13;;;6.60;;
61254;SDS011;47128;47.530;8.584;2024-02-16T06:36:42;12.30;;;7.18;;
61254;SDS011;47128;47.530;8.584;2024-02-16T06:42:13;10.55;;;6.47;;
61254;SDS011;47128;47.530;8.584;2024-02-16T06:47:42;14.93;;;8.60;;
61254;SDS011;47128;47.530;8.584;2024-02-16T06:50:10;11.52;;;6.55;;
61254;SDS011;47128;47.530;8.584;2024-02-16T06:52:36;11.27;;;6.38;;
61254;SDS011;47128;47.530;8.584;2024-02-16T06:55:02;13.27;;;6.75;;
61254;SDS011;47128;47.530;8.584;2024-02-16T06:57:29;11.40;;;6.60;;
61254;SDS011;47128;47.530;8.584;2024-02-16T06:59:56;9.65;;;6.13;;
61254;SDS011;47128;47.530;8.584;2024-02-16T07:02:27;11.30;;;7.13;;
61254;SDS011;47128;47.530;8.584;2024-02-16T07:04:53;11.30;;;7.57;;
61254;SDS011;47128;47.530;8.584;2024-02-16T07:07:19;11.93;;;7.05;;
61254;SDS011;47128;47.530;8.584;2024-02-16T07:09:49;11.85;;;6.07;;
61254;SDS011;47128;47.530;8.584;2024-02-16T07:12:15;14.27;;;6.47;;
61254;SDS011;47128;47.530;8.584;2024-02-16T07:14:48;12.32;;;5.93;;
61254;SDS011;47128;47.530;8.584;2024-02-16T07:17:15;9.85;;;6.25;;
61254;SDS011;47128;47.530;8.584;2024-02-16T07:22:45;9.23;;;6.50;;
61254;SDS011;47128;47.530;8.584;2024-02-16T07:31:19;13.30;;;5.90;;
61254;SDS011;47128;47.530;8.584;2024-02-16T07:36:49;8.38;;;5.60;;
61254;SDS011;47128;47.530;8.584;2024-02-16T07:39:15;12.02;;;7.95;;
61254;SDS011;47128;47.530;8.584;2024-02-16T07:41:41;13.98;;;7.85;;
61254;SDS011;47128;47.530;8.584;2024-02-16T07:44:07;10.00;;;7.43;;
61254;SDS011;47128;47.530;8.584;2024-02-16T07:46:39;15.18;;;10.48;;
61254;SDS011;47128;47.530;8.584;2024-02-16T07:49:05;17.92;;;9.95;;
61254;SDS011;47128;47.530;8.584;2024-02-16T07:51:31;16.15;;;10.32;;
61254;SDS011;47128;47.530;8.584;2024-02-16T07:53:57;12.05;;;7.53;;
61254;SDS011;47128;47.530;8.584;2024-02-16T07:56:24;13.57;;;7.30;;
61254;SDS011;47128;47.530;8.584;2024-02-16T07:58:50;11.02;;;7.00;;
61254;SDS011;47128;47.530;8.584;2024-02-16T08:01:16;13.32;;;6.68;;
61254;SDS011;47128;47.530;8.584;2024-02-16T08:03:45;12.10;;;7.13;;
61254;SDS011;47128;47.530;8.584;2024-02-16T08:06:11;9.20;;;6.32;;
61254;SDS011;47128;47.530;8.584;2024-02-16T08:08:38;10.98;;;6.15;;
61254;SDS011;47128;47.530;8.584;2024-02-16T08:11:07;14.23;;;7.32;;
61254;SDS011;47128;47.530;8.584;2024-02-16T08:13:33;10.32;;;6.50;;
61254;SDS011;47128;47.530;8.584;2024-02-16T08:16:00;9.32;;;6.78;;
61254;SDS011;47128;47.530;8.584;2024-02-16T08:18:28;14.55;;;7.75;;
61254;SDS011;47128;47.530;8.584;2024-02-16T08:20:55;14.13;;;7.47;;
61254;SDS011;47128;47.530;8.584;2024-02-16T08:23:21;15.07;;;6.90;;
61254;SDS011;47128;47.530;8.584;2024-02-16T08:25:50;13.02;;;6.68;;
61254;SDS011;47128;47.530;8.584;2024-02-16T08:28:17;11.05;;;6.30;;
61254;SDS011;47128;47.530;8.584;2024-02-16T08:30:43;12.93;;;5.88;;
61254;SDS011;47128;47.530;8.584;2024-02-16T08:36:13;11.98;;;5.93;;
61254;SDS011;47128;47.530;8.584;2024-02-16T08:38:40;9.60;;;6.22;;
61254;SDS011;47128;47.530;8.584;2024-02-16T08:41:06;14.50;;;6.85;;
61254;SDS011;47128;47.530;8.584;2024-02-16T08:43:32;10.23;;;6.07;;
61254;SDS011;47128;47.530;8.584;2024-02-16T08:45:58;14.57;;;7.60;;
61254;SDS011;47128;47.530;8.584;2024-02-16T08:48:27;11.57;;;7.60;;
61254;SDS011;47128;47.530;8.584;2024-02-16T08:50:53;11.02;;;6.65;;
61254;SDS011;47128;47.530;8.584;2024-02-16T08:53:22;11.15;;;6.30;;
61254;SDS011;47128;47.530;8.584;2024-02-16T08:55:49;12.35;;;6.50;;
61254;SDS011;47128;47.530;8.584;2024-02-16T08:58:15;12.77;;;6.07;;
61254;SDS011;47128;47.530;8.584;2024-02-16T09:06:48;10.55;;;6.55;;
61254;SDS011;47128;47.530;8.584;2024-02-16T09:12:19;11.13;;;7.38;;
61254;SDS011;47128;47.530;8.584;2024-02-16T09:17:49;14.53;;;7.20;;
61254;SDS011;47128;47.530;8.584;2024-02-16T09:20:15;21.08;;;8.20;;
61254;SDS011;47128;47.530;8.584;2024-02-16T09:22:47;15.10;;;8.07;;
61254;SDS011;47128;47.530;8.584;2024-02-16T09:25:14;14.32;;;8.23;;
61254;SDS011;47128;47.530;8.584;2024-02-16T09:27:40;14.05;;;7.13;;
61254;SDS011;47128;47.530;8.584;2024-02-16T09:36:17;9.87;;;5.90;;
61254;SDS011;47128;47.530;8.584;2024-02-16T09:41:50;10.43;;;6.23;;
61254;SDS011;47128;47.530;8.584;2024-02-16T09:44:20;13.13;;;6.45;;
61254;SDS011;47128;47.530;8.584;2024-02-16T09:52:48;13.05;;;5.72;;
61254;SDS011;47128;47.530;8.584;2024-02-16T09:55:15;10.88;;;5.25;;
61254;SDS011;47128;47.530;8.584;2024-02-16T09:57:44;9.02;;;4.13;;
61254;SDS011;47128;47.530;8.584;2024-02-16T10:00:10;8.80;;;5.10;;
61254;SDS011;47128;47.530;8.584;2024-02-16T10:02:43;7.25;;;4.60;;
61254;SDS011;47128;47.530;8.584;2024-02-16T10:05:21;14.13;;;4.93;;
61254;SDS011;47128;47.530;8.584;2024-02-16T10:10:34;9.88;;;4.68;;
61254;SDS011;47128;47.530;8.584;2024-02-16T10:16:06;14.13;;;4.20;;
61254;SDS011;47128;47.530;8.584;2024-02-16T10:18:34;6.25;;;3.63;;
61254;SDS011;47128;47.530;8.584;2024-02-16T10:21:00;6.75;;;3.30;;
61254;SDS011;47128;47.530;8.584;2024-02-16T10:23:26;6.90;;;3.80;;
61254;SDS011;47128;47.530;8.584;2024-02-16T10:25:53;10.95;;;4.82;;
61254;SDS011;47128;47.530;8.584;2024-02-16T10:28:20;5.93;;;3.70;;
61254;SDS011;47128;47.530;8.584;2024-02-16T10:30:52;6.07;;;3.42;;
61254;SDS011;47128;47.530;8.584;2024-02-16T10:33:22;6.35;;;3.40;;
61254;SDS011;47128;47.530;8.584;2024-02-16T10:35:49;7.50;;;3.80;;
61254;SDS011;47128;47.530;8.584;2024-02-16T10:38:16;5.50;;;3.50;;
61254;SDS011;47128;47.530;8.584;2024-02-16T10:40:43;7.30;;;3.35;;
61254;SDS011;47128;47.530;8.584;2024-02-16T10:43:10;5.97;;;3.00;;
61254;SDS011;47128;47.530;8.584;2024-02-16T10:45:39;7.45;;;3.95;;
61254;SDS011;47128;47.530;8.584;2024-02-16T10:48:06;6.97;;;3.25;;
61254;SDS011;47128;47.530;8.584;2024-02-16T10:50:33;9.70;;;4.32;;
61254;SDS011;47128;47.530;8.584;2024-02-16T10:53:19;7.22;;;3.53;;
61254;SDS011;47128;47.530;8.584;2024-02-16T10:58:53;6.25;;;3.17;;
61254;SDS011;47128;47.530;8.584;2024-02-16T11:04:07;5.95;;;3.33;;
61254;SDS011;47128;47.530;8.584;2024-02-16T11:06:44;5.07;;;3.40;;
61254;SDS011;47128;47.530;8.584;2024-02-16T11:09:38;7.00;;;3.30;;
61254;SDS011;47128;47.530;8.584;2024-02-16T11:18:12;5.13;;;3.35;;
61254;SDS011;47128;47.530;8.584;2024-02-16T11:23:44;5.57;;;2.78;;
61254;SDS011;47128;47.530;8.584;2024-02-16T11:26:10;6.38;;;3.30;;
61254;SDS011;47128;47.530;8.584;2024-02-16T11:28:37;3.88;;;2.78;;
61254;SDS011;47128;47.530;8.584;2024-02-16T11:31:04;4.32;;;2.50;;
61254;SDS011;47128;47.530;8.584;2024-02-16T11:33:31;5.55;;;2.92;;
61254;SDS011;47128;47.530;8.584;2024-02-16T11:35:58;4.45;;;2.95;;
61254;SDS011;47128;47.530;8.584;2024-02-16T11:41:13;6.18;;;2.40;;
61254;SDS011;47128;47.530;8.584;2024-02-16T11:43:41;5.85;;;2.70;;
61254;SDS011;47128;47.530;8.584;2024-02-16T11:46:13;4.90;;;2.22;;
61254;SDS011;47128;47.530;8.584;2024-02-16T11:48:47;2.90;;;2.30;;
61254;SDS011;47128;47.530;8.584;2024-02-16T11:51:14;3.15;;;2.10;;
61254;SDS011;47128;47.530;8.584;2024-02-16T11:53:42;5.68;;;2.75;;
61254;SDS011;47128;47.530;8.584;2024-02-16T11:56:10;4.70;;;2.30;;
61254;SDS011;47128;47.530;8.584;2024-02-16T11:58:47;4.28;;;2.33;;
61254;SDS011;47128;47.530;8.584;2024-02-16T12:01:13;5.00;;;2.25;;
61254;SDS011;47128;47.530;8.584;2024-02-16T12:03:42;6.38;;;2.45;;
61254;SDS011;47128;47.530;8.584;2024-02-16T12:09:14;5.40;;;2.90;;
61254;SDS011;47128;47.530;8.584;2024-02-16T12:11:41;5.90;;;2.92;;
61254;SDS011;47128;47.530;8.584;2024-02-16T12:14:07;4.93;;;2.60;;
61254;SDS011;47128;47.530;8.584;2024-02-16T12:16:33;4.43;;;2.72;;
61254;SDS011;47128;47.530;8.584;2024-02-16T12:19:05;4.38;;;2.80;;
61254;SDS011;47128;47.530;8.584;2024-02-16T12:21:32;5.15;;;2.53;;
61254;SDS011;47128;47.530;8.584;2024-02-16T12:23:58;4.07;;;2.38;;
61254;SDS011;47128;47.530;8.584;2024-02-16T12:26:25;5.78;;;2.03;;
61254;SDS011;47128;47.530;8.584;2024-02-16T12:28:51;4.68;;;1.95;;
61254;SDS011;47128;47.530;8.584;2024-02-16T12:31:20;4.10;;;2.30;;
61254;SDS011;47128;47.530;8.584;2024-02-16T12:33:47;5.57;;;2.75;;
61254;SDS011;47128;47.530;8.584;2024-02-16T12:42:20;4.47;;;2.78;;
61254;SDS011;47128;47.530;8.584;2024-02-16T12:44:46;4.10;;;2.60;;
61254;SDS011;47128;47.530;8.584;2024-02-16T12:47:12;8.00;;;2.75;;
61254;SDS011;47128;47.530;8.584;2024-02-16T12:49:38;5.32;;;2.45;;
61254;SDS011;47128;47.530;8.584;2024-02-16T12:52:05;8.27;;;2.70;;
61254;SDS011;47128;47.530;8.584;2024-02-16T12:54:32;5.57;;;2.83;;
61254;SDS011;47128;47.530;8.584;2024-02-16T12:56:59;3.97;;;2.40;;
61254;SDS011;47128;47.530;8.584;2024-02-16T12:59:26;6.68;;;2.03;;
61254;SDS011;47128;47.530;8.584;2024-02-16T13:01:52;5.78;;;2.10;;
61254;SDS011;47128;47.530;8.584;2024-02-16T13:04:18;3.90;;;2.30;;
61254;SDS011;47128;47.530;8.584;2024-02-16T13:06:48;5.15;;;2.50;;
61254;SDS011;47128;47.530;8.584;2024-02-16T13:09:14;4.32;;;1.90;;
61254;SDS011;47128;47.530;8.584;2024-02-16T13:11:41;4.07;;;1.95;;
61254;SDS011;47128;47.530;8.584;2024-02-16T13:14:07;4.13;;;2.17;;
61254;SDS011;47128;47.530;8.584;2024-02-16T13:16:33;4.72;;;2.40;;
61254;SDS011;47128;47.530;8.584;2024-02-16T13:18:59;5.30;;;2.20;;
61254;SDS011;47128;47.530;8.584;2024-02-16T13:21:25;5.47;;;2.15;;
61254;SDS011;47128;47.530;8.584;2024-02-16T13:23:52;3.70;;;2.13;;
61254;SDS011;47128;47.530;8.584;2024-02-16T13:26:18;5.60;;;2.22;;
61254;SDS011;47128;47.530;8.584;2024-02-16T13:28:44;3.90;;;1.95;;
61254;SDS011;47128;47.530;8.584;2024-02-16T13:31:10;3.70;;;2.10;;
61254;SDS011;47128;47.530;8.584;2024-02-16T13:33:37;3.15;;;2.03;;
61254;SDS011;47128;47.530;8.584;2024-02-16T13:36:03;4.43;;;2.22;;
61254;SDS011;47128;47.530;8.584;2024-02-16T13:38:30;4.38;;;2.40;;
61254;SDS011;47128;47.530;8.584;2024-02-16T13:40:56;5.97;;;2.22;;
61254;SDS011;47128;47.530;8.584;2024-02-16T13:43:23;6.35;;;2.28;;
61254;SDS011;47128;47.530;8.584;2024-02-16T13:45:50;7.20;;;2.22;;
61254;SDS011;47128;47.530;8.584;2024-02-16T13:51:39;3.83;;;2.00;;
61254;SDS011;47128;47.530;8.584;2024-02-16T13:54:08;5.50;;;1.90;;
61254;SDS011;47128;47.530;8.584;2024-02-16T13:56:34;2.78;;;1.42;;
61254;SDS011;47128;47.530;8.584;2024-02-16T14:02:07;2.83;;;1.30;;
61254;SDS011;47128;47.530;8.584;2024-02-16T14:04:34;5.03;;;1.38;;
61254;SDS011;47128;47.530;8.584;2024-02-16T14:07:06;4.88;;;1.52;;
61254;SDS011;47128;47.530;8.584;2024-02-16T14:09:32;5.63;;;1.90;;
61254;SDS011;47128;47.530;8.584;2024-02-16T14:18:02;3.53;;;1.52;;
61254;SDS011;47128;47.530;8.584;2024-02-16T14:20:29;1.95;;;1.40;;
61254;SDS011;47128;47.530;8.584;2024-02-16T14:22:55;4.70;;;1.17;;
61254;SDS011;47128;47.530;8.584;2024-02-16T14:31:29;5.33;;;1.50;;
61254;SDS011;47128;47.530;8.584;2024-02-16T14:36:56;4.68;;;2.33;;
61254;SDS011;47128;47.530;8.584;2024-02-16T14:39:22;5.97;;;1.65;;
61254;SDS011;47128;47.530;8.584;2024-02-16T14:41:50;5.28;;;1.75;;
61254;SDS011;47128;47.530;8.584;2024-02-16T14:44:16;5.18;;;1.58;;
61254;SDS011;47128;47.530;8.584;2024-02-16T14:46:43;5.72;;;1.30;;
61254;SDS011;47128;47.530;8.584;2024-02-16T14:55:14;2.08;;;1.20;;
61254;SDS011;47128;47.530;8.584;2024-02-16T14:57:41;4.50;;;1.52;;
61254;SDS011;47128;47.530;8.584;2024-02-16T15:00:07;4.18;;;1.50;;
61254;SDS011;47128;47.530;8.584;2024-02-16T15:02:33;4.78;;;1.55;;
61254;SDS011;47128;47.530;8.584;2024-02-16T15:05:01;3.72;;;1.42;;
61254;SDS011;47128;47.530;8.584;2024-02-16T15:07:28;4.70;;;1.40;;
61254;SDS011;47128;47.530;8.584;2024-02-16T15:10:03;4.22;;;1.55;;
61254;SDS011;47128;47.530;8.584;2024-02-16T15:12:29;4.25;;;1.70;;
61254;SDS011;47128;47.530;8.584;2024-02-16T15:14:56;4.82;;;1.63;;
61254;SDS011;47128;47.530;8.584;2024-02-16T15:17:24;3.42;;;1.40;;
61254;SDS011;47128;47.530;8.584;2024-02-16T15:19:50;4.35;;;1.70;;
61254;SDS011;47128;47.530;8.584;2024-02-16T15:22:16;5.68;;;1.52;;
61254;SDS011;47128;47.530;8.584;2024-02-16T15:24:43;6.22;;;1.40;;
61254;SDS011;47128;47.530;8.584;2024-02-16T15:27:09;3.53;;;2.35;;
61254;SDS011;47128;47.530;8.584;2024-02-16T15:29:36;4.63;;;1.77;;
61254;SDS011;47128;47.530;8.584;2024-02-16T15:32:03;2.35;;;1.50;;
61254;SDS011;47128;47.530;8.584;2024-02-16T15:34:32;3.65;;;1.38;;
61254;SDS011;47128;47.530;8.584;2024-02-16T15:36:58;4.63;;;1.63;;
61254;SDS011;47128;47.530;8.584;2024-02-16T15:39:27;4.18;;;1.20;;
61254;SDS011;47128;47.530;8.584;2024-02-16T15:41:53;5.22;;;1.80;;
61254;SDS011;47128;47.530;8.584;2024-02-16T15:44:20;4.40;;;1.48;;
61254;SDS011;47128;47.530;8.584;2024-02-16T15:46:46;4.15;;;1.75;;
61254;SDS011;47128;47.530;8.584;2024-02-16T15:49:15;5.00;;;1.58;;
61254;SDS011;47128;47.530;8.584;2024-02-16T15:51:41;4.75;;;1.88;;
61254;SDS011;47128;47.530;8.584;2024-02-16T15:54:07;5.88;;;2.20;;
61254;SDS011;47128;47.530;8.584;2024-02-16T15:56:34;3.58;;;1.90;;
61254;SDS011;47128;47.530;8.584;2024-02-16T15:59:00;4.00;;;1.90;;
61254;SDS011;47128;47.530;8.584;2024-02-16T16:01:37;4.90;;;1.92;;
61254;SDS011;47128;47.530;8.584;2024-02-16T16:04:05;5.40;;;1.73;;
61254;SDS011;47128;47.530;8.584;2024-02-16T16:09:33;4.53;;;1.58;;
61254;SDS011;47128;47.530;8.584;2024-02-16T16:11:59;6.45;;;2.00;;
61254;SDS011;47128;47.530;8.584;2024-02-16T16:14:28;7.15;;;1.75;;
61254;SDS011;47128;47.530;8.584;2024-02-16T16:16:58;4.10;;;1.42;;
61254;SDS011;47128;47.530;8.584;2024-02-16T16:19:25;5.55;;;1.92;;
61254;SDS011;47128;47.530;8.584;2024-02-16T16:21:51;5.38;;;1.63;;
61254;SDS011;47128;47.530;8.584;2024-02-16T16:24:21;5.03;;;1.85;;
61254;SDS011;47128;47.530;8.584;2024-02-16T16:26:49;2.40;;;1.30;;
61254;SDS011;47128;47.530;8.584;2024-02-16T16:29:17;5.50;;;2.08;;
61254;SDS011;47128;47.530;8.584;2024-02-16T16:31:44;3.88;;;1.55;;
61254;SDS011;47128;47.530;8.584;2024-02-16T16:37:00;5.38;;;1.60;;
61254;SDS011;47128;47.530;8.584;2024-02-16T16:42:46;3.33;;;1.85;;